Salisbury, MD

1:18 AM EST on December 22, 2014 (GMT -0500)
Pemberton | Change Station
CLOSE
Current Station
Personal Weather Station
Location: Salisbury, MD
Elevation: 26 ft
Nearby Weather Stations

Elev 26 ft 38.36 °N, 75.62 °W | Updated 44 seconds ago

Partly Cloudy
Partly Cloudy
28.5 °F
Feels Like 28 °F
N
0.0
Wind Variable Wind from NE
Gusts 1.0 mph

Today
High -- | Low -- °F
--% Chance of Precip.
Yesterday
High -- | Low -- °F
Precip. -- in
7:16 AM 4:45 PM
New Moon, 0% visible
Pressure 30.32 in
Visibility 6.0 miles
Clouds Clear
Windchill 28 °F
Dew Point 26 °F
Humidity 89%
Rainfall 0.00 in
Snow Depth Not available.
UV 0 out of 12
Pollen .10 out of 12
Air Quality Not available.
Flu Activity Not available.
METAR KSBY 220554Z AUTO 33003KT 6SM HZ CLR M01/M04 A3031 RMK AO2 SLP267 T10061044 11006 21022 58007

More Conditions Fewer Conditions

Pressure 30.32 in
Visibility 6.0 miles
Clouds Clear
Windchill 28 °F
Dew Point 26 °F
Humidity 89%
Rainfall 0.00 in
Snow Depth Not available.
UV 0 out of 12
Pollen .10 out of 12
Air Quality Not available.
Flu Activity Not available.
METAR KSBY 220554Z AUTO 33003KT 6SM HZ CLR M01/M04 A3031 RMK AO2 SLP267 T10061044 11006 21022 58007

More Conditions Fewer Conditions

10-Day Weather Forecast

Almanac

Astronomy

Dec. 22, 2014 Rise Set
Actual Time
Civil Twilight
Nautical Twilight
Astronomical Twilight
Moon
Length of Visible Light
Length of Day
Tomorrow will be .
, % of the Moon is Illuminated

Today's Extremes

State Highs State Lows

Community

WunderPhotos

Upload Photos

1,779,553 photos uploaded!

WunderBlogs® & News

Nearby

Air Quality

  Air Quality AQ Index Pollutant
Not available.

Snow Depth

Station Depth Elevation

Earthquake Activity

City Distance Mag. Time & Date
Minimum magnitude displayed is 2.5.

Coastal Water Temperatures

Place Temperature

Nearby Weather Stations